Terminal Aerodrome Forecast
Issued by NWS Twin Cities, MN

Home | Current Version | Previous Version | Text Only | Print | Product List | Glossary Off
Versions: 1 2 3 4 5 6 7 8 9 10 11 12 13 14 15 16 17 18 19 20 21 22 23 24 25

000
FTUS43 KMPX 201100
TAFMSP
TAF
KMSP 201128Z 2012/2118 29010KT P6SM SKC
     FM201600 30011KT P6SM FEW040
     FM210200 22004KT P6SM SKC
     FM210900 17007KT P6SM SCT200=

USA.gov is the U.S. government's official web portal to all federal, state and local government web resources and services.